Weather observations for the past three days for
Crown Point International Airport
Imperial (Metric)
Date Time (ast) Wind (mph) Vis. (mi.) Weather Sky Cond. Temperature (ºF) Relative Humidity Wind Chill (°F) Heat Index (°F) Pressure Precipitation (in)
Air Dwpt 6 hour altimeter (in) sea level (mb) 1 hr 3 hr 6 hr
Max. Min.
09 20:00 NE 7 0.00 A Few Clouds FEW018 80.6 71.6 74% 85 0 0.0
09 19:00 E 10 0.00 A Few Clouds FEW020 82.4 71.6 70% 87 0 0.0
09 18:00 E 12 0.00 A Few Clouds FEW020 82.4 71.6 70% 87 0 0.0
09 17:00 E 12 0.00 A Few Clouds FEW020 84.2 71.6 66% 90 0 0.0
09 16:00 E 9 0.00 A Few Clouds FEW020 84.2 71.6 66% 90 0 0.0
09 15:00 SE 10 0.00 A Few Clouds FEW020 86 71.6 62% 92 0 0.0
09 14:00 SE 10 0.00 A Few Clouds FEW020 86 71.6 62% 92 0 0.0
09 13:00 SE 10 0.00 A Few Clouds FEW020 87.8 71.6 59% 94 0 0.0
09 12:00 E 13 0.00 A Few Clouds FEW018 87.8 71.6 59% 94 0 0.0
09 11:00 E 13 0.00 A Few Clouds FEW018 86 71.6 62% 92 0 0.0
09 10:00 E 13 0.00 A Few Clouds FEW018 86 73.4 66% 93 0 0.0
09 09:00 E 15 0.00 A Few Clouds FEW018 86 73.4 66% 93 0 0.0
09 08:00 E 13 0.00 A Few Clouds FEW018 84.2 73.4 70% 91 0 0.0
09 07:00 E 10 0.00 A Few Clouds FEW016 80.6 71.6 74% 85 0 0.0
09 06:00 NE 5 0.00 A Few Clouds FEW016 78.8 71.6 79% 82 0 0.0
09 05:00 E 7 0.00 A Few Clouds FEW016 78.8 71.6 79% 82 0 0.0
09 04:00 NE 5 0.00 A Few Clouds FEW016 77 71.6 83% 78 0 0.0
09 03:00 NE 3 0.00 A Few Clouds FEW016 77 71.6 83% 78 0 0.0
09 02:00 NE 5 0.00 A Few Clouds FEW016 77 71.6 83% 78 0 0.0
09 01:00 NE 5 0.00 A Few Clouds FEW016 77 71.6 83% 78 0 0.0
09 00:00 NE 5 0.00 A Few Clouds FEW016 78.8 71.6 79% 82 0 0.0
08 23:00 NE 5 0.00 A Few Clouds FEW016 78.8 71.6 79% 82 0 0.0
08 22:00 NE 5 0.00 A Few Clouds FEW016 78.8 71.6 79% 82 0 0.0
08 21:00 NE 3 0.00 A Few Clouds FEW016 78.8 69.8 74% 81 0 0.0
08 20:00 NE 5 0.00 A Few Clouds FEW018 78.8 69.8 74% 81 0 0.0
08 19:00 E 12 0.00 A Few Clouds FEW020 80.6 71.6 74% 85 0 0.0
08 18:00 E 12 0.00 A Few Clouds FEW020 82.4 71.6 70% 87 0 0.0
08 17:00 E 10 0.00 A Few Clouds FEW023 84.2 73.4 70% 91 0 0.0
08 16:00 SE 8 0.00 A Few Clouds FEW025 86 73.4 66% 93 0 0.0
08 15:00 SE 9 0.00 A Few Clouds FEW025 86 71.6 62% 92 0 0.0
08 14:00 E 10 0.00 A Few Clouds FEW025 87.8 71.6 59% 94 0 0.0
08 13:00 E 12 0.00 A Few Clouds FEW025 86 71.6 62% 92 0 0.0
08 12:00 E 12 0.00 A Few Clouds FEW025 87.8 73.4 62% 96 0 0.0
08 11:00 SE 10 0.00 A Few Clouds FEW023 86 73.4 66% 93 0 0.0
08 10:00 E 13 0.00 A Few Clouds FEW022 86 69.8 59% 91 0 0.0
08 09:00 NE 6 0.00 Partly Cloudy SCT018 84.2 71.6 66% 90 0 0.0
08 08:00 E 9 0.00 A Few Clouds FEW018 82.4 73.4 74% 88 0 0.0
08 07:00 NE 3 0.00 A Few Clouds FEW016 78.8 71.6 79% 82 0 0.0
08 06:00 NE 5 0.00 A Few Clouds FEW016 78.8 71.6 79% 82 0 0.0
08 05:00 NE 5 0.00 A Few Clouds FEW016 77 71.6 83% 78 0 0.0
08 04:00 E 5 0.00 A Few Clouds FEW016 78.8 71.6 79% 82 0 0.0
08 03:00 E 3 0.00 A Few Clouds FEW016 78.8 71.6 79% 82 0 0.0
08 02:00 E 3 0.00 A Few Clouds FEW016 78.8 73.4 84% 82 0 0.0
08 01:00 NE 5 0.00 A Few Clouds FEW016 78.8 71.6 79% 82 0 0.0
08 00:00 NE 5 0.00 A Few Clouds FEW016 78.8 71.6 79% 82 0 0.0
07 23:00 E 6 0.00 A Few Clouds FEW016 80.6 73.4 79% 85 0 0.0
07 22:00 E 7 0.00 A Few Clouds FEW016 80.6 73.4 79% 85 0 0.0
07 21:00 NE 6 0.00 A Few Clouds FEW018 80.6 73.4 79% 85 0 0.0
07 20:00 E 6 0.00 A Few Clouds FEW018 80.6 73.4 79% 85 0 0.0
07 19:00 E 9 0.00 A Few Clouds FEW018 80.6 73.4 79% 85 0 0.0
07 18:00 E 15 0.00 A Few Clouds FEW018 82.4 75.2 79% 89 0 0.0
07 17:00 E 7 0.00 A Few Clouds FEW018 84.2 75.2 74% 92 0 0.0
07 16:00 E 8 0.00 Showers in Vicinity SCT018 84.2 75.2 74% 92 0 0.0
07 15:00 E 9 0.00 Partly Cloudy SCT020 86 73.4 66% 93 0 0.0
07 14:00 NE 6 0.00 Partly Cloudy SCT018 84.2 73.4 70% 91 0 0.0
07 13:00 NE 8 0.00 Showers in Vicinity SCT018 84.2 75.2 74% 92 0 0.0
07 12:00 NE 7 0.00 Showers in Vicinity SCT018 86 73.4 66% 93 0 0.0
07 11:00 NE 9 0.00 Partly Cloudy SCT018 86 73.4 66% 93 0 0.0
07 10:00 NE 8 0.00 Partly Cloudy SCT018 86 75.2 70% 95 0 0.0
07 09:00 E 10 0.00 A Few Clouds FEW020 86 75.2 70% 95 0 0.0
07 08:00 E 13 0.00 A Few Clouds FEW018 84.2 75.2 74% 92 0 0.0
07 07:00 E 7 0.00 A Few Clouds FEW016 80.6 73.4 79% 85 0 0.0
07 06:00 NE 3 0.00 A Few Clouds FEW016 78.8 73.4 84% 82 0 0.0
07 05:00 NE 6 0.00 A Few Clouds FEW016 78.8 73.4 84% 82 0 0.0
07 04:00 NE 3 0.00 A Few Clouds FEW016 78.8 73.4 84% 82 0 0.0
07 03:00 N 5 0.00 A Few Clouds FEW016 78.8 73.4 84% 82 0 0.0
07 02:00 NE 3 0.00 A Few Clouds FEW016 78.8 73.4 84% 82 0 0.0
07 01:00 NE 3 0.00 A Few Clouds FEW016 78.8 73.4 84% 82 0 0.0
07 00:00 NE 6 0.00 A Few Clouds FEW016 78.8 73.4 84% 82 0 0.0
06 23:00 NE 5 0.00 A Few Clouds FEW016 78.8 73.4 84% 82 0 0.0
06 22:00 NE 5 0.00 A Few Clouds FEW016 80.6 73.4 79% 85 0 0.0
06 21:00 E 9 0.00 A Few Clouds FEW016 82.4 73.4 74% 88 0 0.0
Date Time (ast) Wind (mph) Vis. (mi.) Weather Sky Cond. Air Dwpt Max. Min. Relative Humidity Wind Chill (°F) Heat Index (°F) altimeter (in) sea level (mb) 1 hr 3 hr 6 hr
6 hour
Temperature (ºF) Pressure Precipitation (in)